Helm, California
Current Conditions -  °F | °C
As of 3:56 PM on Wednesday 26 Nov 2014 (Local Time) from KNLC Reporting Station
Clear Clear  
Wind Chill: 68°   Ceiling: Unl
Heat Index: 68°   Visibility: 7mi
Dew Point: 46°   Wind: 0mph
Humidity: 45%   Direction: NA
Pressure: 30.23"   Gusts: NA
Location:  36.53°N, 120.1°W
Report Text: KNLC 262356Z 00000KT 7SM CLR 20/08 A3023 RMK AO2 SLP239 RH/45 T02000078 10206 20117 56009 $
Loading
Personal Weather Stations






























Interactive Weather Map New forecast layout! Learn more

10-Day Weather Forecast

Advertisements
Track Severe Weather on mobile